sensor_id;sensor_type;location;lat;lon;timestamp;P1;durP1;ratioP1;P2;durP2;ratioP2
1048;SDS011;513;51.444;7.196;2023-06-26T00:02:13;7.00;;;6.35;;
1048;SDS011;513;51.444;7.196;2023-06-26T00:04:41;7.38;;;6.10;;
1048;SDS011;513;51.444;7.196;2023-06-26T00:07:08;7.10;;;5.80;;
1048;SDS011;513;51.444;7.196;2023-06-26T00:09:35;6.97;;;6.00;;
1048;SDS011;513;51.444;7.196;2023-06-26T00:12:02;8.48;;;5.85;;
1048;SDS011;513;51.444;7.196;2023-06-26T00:14:29;6.95;;;5.95;;
1048;SDS011;513;51.444;7.196;2023-06-26T00:16:57;7.10;;;5.95;;
1048;SDS011;513;51.444;7.196;2023-06-26T00:19:24;6.57;;;5.97;;
1048;SDS011;513;51.444;7.196;2023-06-26T00:21:51;6.43;;;5.65;;
1048;SDS011;513;51.444;7.196;2023-06-26T00:24:18;6.97;;;5.93;;
1048;SDS011;513;51.444;7.196;2023-06-26T00:26:46;6.75;;;6.05;;
1048;SDS011;513;51.444;7.196;2023-06-26T00:29:14;6.93;;;5.95;;
1048;SDS011;513;51.444;7.196;2023-06-26T00:31:41;6.70;;;5.90;;
1048;SDS011;513;51.444;7.196;2023-06-26T00:34:09;8.88;;;6.30;;
1048;SDS011;513;51.444;7.196;2023-06-26T00:36:36;8.23;;;5.95;;
1048;SDS011;513;51.444;7.196;2023-06-26T00:39:03;6.47;;;5.82;;
1048;SDS011;513;51.444;7.196;2023-06-26T00:41:30;8.13;;;6.30;;
1048;SDS011;513;51.444;7.196;2023-06-26T00:43:57;6.57;;;5.70;;
1048;SDS011;513;51.444;7.196;2023-06-26T00:46:24;8.02;;;6.10;;
1048;SDS011;513;51.444;7.196;2023-06-26T00:48:51;6.05;;;5.45;;
1048;SDS011;513;51.444;7.196;2023-06-26T00:51:20;8.18;;;6.00;;
1048;SDS011;513;51.444;7.196;2023-06-26T00:53:47;6.53;;;5.82;;
1048;SDS011;513;51.444;7.196;2023-06-26T00:56:15;7.50;;;6.40;;
1048;SDS011;513;51.444;7.196;2023-06-26T00:58:42;7.15;;;5.70;;
1048;SDS011;513;51.444;7.196;2023-06-26T01:01:09;6.88;;;6.18;;
1048;SDS011;513;51.444;7.196;2023-06-26T01:03:42;6.68;;;5.90;;
1048;SDS011;513;51.444;7.196;2023-06-26T01:06:10;6.68;;;5.97;;
1048;SDS011;513;51.444;7.196;2023-06-26T01:08:39;6.73;;;6.00;;
1048;SDS011;513;51.444;7.196;2023-06-26T01:11:07;7.00;;;6.30;;
1048;SDS011;513;51.444;7.196;2023-06-26T01:13:34;6.83;;;5.83;;
1048;SDS011;513;51.444;7.196;2023-06-26T01:16:02;8.55;;;5.90;;
1048;SDS011;513;51.444;7.196;2023-06-26T01:18:31;6.72;;;5.93;;
1048;SDS011;513;51.444;7.196;2023-06-26T01:20:58;6.93;;;5.80;;
1048;SDS011;513;51.444;7.196;2023-06-26T01:23:29;7.32;;;5.82;;
1048;SDS011;513;51.444;7.196;2023-06-26T01:26:05;7.55;;;6.55;;
1048;SDS011;513;51.444;7.196;2023-06-26T01:28:33;6.65;;;5.88;;
1048;SDS011;513;51.444;7.196;2023-06-26T01:31:00;7.68;;;6.18;;
1048;SDS011;513;51.444;7.196;2023-06-26T01:33:27;6.82;;;5.97;;
1048;SDS011;513;51.444;7.196;2023-06-26T01:35:55;8.48;;;6.10;;
1048;SDS011;513;51.444;7.196;2023-06-26T01:38:22;6.47;;;5.78;;
1048;SDS011;513;51.444;7.196;2023-06-26T01:40:49;7.97;;;6.18;;
1048;SDS011;513;51.444;7.196;2023-06-26T01:43:19;7.47;;;5.70;;
1048;SDS011;513;51.444;7.196;2023-06-26T01:45:49;6.70;;;5.90;;
1048;SDS011;513;51.444;7.196;2023-06-26T01:48:17;7.32;;;5.93;;
1048;SDS011;513;51.444;7.196;2023-06-26T01:50:46;6.82;;;6.13;;
1048;SDS011;513;51.444;7.196;2023-06-26T01:53:15;6.18;;;5.57;;
1048;SDS011;513;51.444;7.196;2023-06-26T01:55:44;7.80;;;5.97;;
1048;SDS011;513;51.444;7.196;2023-06-26T01:58:12;7.75;;;6.10;;
1048;SDS011;513;51.444;7.196;2023-06-26T02:00:43;6.77;;;5.70;;
1048;SDS011;513;51.444;7.196;2023-06-26T02:03:10;8.05;;;6.07;;
1048;SDS011;513;51.444;7.196;2023-06-26T02:05:37;7.30;;;6.00;;
1048;SDS011;513;51.444;7.196;2023-06-26T02:08:04;7.15;;;6.10;;
1048;SDS011;513;51.444;7.196;2023-06-26T02:10:31;7.35;;;6.05;;
1048;SDS011;513;51.444;7.196;2023-06-26T02:12:59;6.38;;;5.78;;
1048;SDS011;513;51.444;7.196;2023-06-26T02:15:26;7.82;;;6.00;;
1048;SDS011;513;51.444;7.196;2023-06-26T02:17:54;7.53;;;5.90;;
1048;SDS011;513;51.444;7.196;2023-06-26T02:20:21;7.30;;;6.32;;
1048;SDS011;513;51.444;7.196;2023-06-26T02:22:48;6.57;;;5.93;;
1048;SDS011;513;51.444;7.196;2023-06-26T02:25:17;6.85;;;6.00;;
1048;SDS011;513;51.444;7.196;2023-06-26T02:27:44;7.72;;;6.13;;
1048;SDS011;513;51.444;7.196;2023-06-26T02:30:11;6.90;;;6.13;;
1048;SDS011;513;51.444;7.196;2023-06-26T02:32:38;6.60;;;5.93;;
1048;SDS011;513;51.444;7.196;2023-06-26T02:35:07;7.65;;;6.32;;
1048;SDS011;513;51.444;7.196;2023-06-26T02:37:34;6.53;;;5.70;;
1048;SDS011;513;51.444;7.196;2023-06-26T02:40:01;6.65;;;5.97;;
1048;SDS011;513;51.444;7.196;2023-06-26T02:42:30;7.03;;;6.32;;
1048;SDS011;513;51.444;7.196;2023-06-26T02:44:57;7.68;;;6.13;;
1048;SDS011;513;51.444;7.196;2023-06-26T02:47:24;8.32;;;6.43;;
1048;SDS011;513;51.444;7.196;2023-06-26T02:49:51;6.93;;;6.22;;
1048;SDS011;513;51.444;7.196;2023-06-26T02:52:19;7.32;;;6.18;;
1048;SDS011;513;51.444;7.196;2023-06-26T02:54:46;7.50;;;6.07;;
1048;SDS011;513;51.444;7.196;2023-06-26T02:57:13;8.35;;;6.10;;
1048;SDS011;513;51.444;7.196;2023-06-26T02:59:42;9.13;;;6.47;;
1048;SDS011;513;51.444;7.196;2023-06-26T03:02:09;8.13;;;6.53;;
1048;SDS011;513;51.444;7.196;2023-06-26T03:04:36;8.55;;;6.70;;
1048;SDS011;513;51.444;7.196;2023-06-26T03:07:03;7.85;;;6.05;;
1048;SDS011;513;51.444;7.196;2023-06-26T03:09:31;7.60;;;6.57;;
1048;SDS011;513;51.444;7.196;2023-06-26T03:11:58;9.93;;;6.75;;
1048;SDS011;513;51.444;7.196;2023-06-26T03:14:25;7.32;;;6.07;;
1048;SDS011;513;51.444;7.196;2023-06-26T03:16:53;7.13;;;6.43;;
1048;SDS011;513;51.444;7.196;2023-06-26T03:19:22;7.05;;;6.35;;
1048;SDS011;513;51.444;7.196;2023-06-26T03:21:49;8.25;;;6.85;;
1048;SDS011;513;51.444;7.196;2023-06-26T03:24:16;8.73;;;6.45;;
1048;SDS011;513;51.444;7.196;2023-06-26T03:26:45;8.10;;;6.55;;
1048;SDS011;513;51.444;7.196;2023-06-26T03:29:12;7.53;;;6.33;;
1048;SDS011;513;51.444;7.196;2023-06-26T03:31:39;8.02;;;6.80;;
1048;SDS011;513;51.444;7.196;2023-06-26T03:34:06;7.63;;;6.47;;
1048;SDS011;513;51.444;7.196;2023-06-26T03:36:33;8.10;;;6.22;;
1048;SDS011;513;51.444;7.196;2023-06-26T03:39:00;7.40;;;6.32;;
1048;SDS011;513;51.444;7.196;2023-06-26T03:41:29;9.60;;;7.00;;
1048;SDS011;513;51.444;7.196;2023-06-26T03:43:57;8.27;;;6.95;;
1048;SDS011;513;51.444;7.196;2023-06-26T03:46:25;8.02;;;6.57;;
1048;SDS011;513;51.444;7.196;2023-06-26T03:48:52;8.60;;;6.43;;
1048;SDS011;513;51.444;7.196;2023-06-26T03:51:19;9.98;;;6.72;;
1048;SDS011;513;51.444;7.196;2023-06-26T03:53:46;7.32;;;6.55;;
1048;SDS011;513;51.444;7.196;2023-06-26T03:56:13;9.43;;;6.85;;
1048;SDS011;513;51.444;7.196;2023-06-26T03:58:40;7.88;;;7.07;;
1048;SDS011;513;51.444;7.196;2023-06-26T04:01:08;8.25;;;6.70;;
1048;SDS011;513;51.444;7.196;2023-06-26T04:03:35;8.57;;;6.80;;
1048;SDS011;513;51.444;7.196;2023-06-26T04:06:02;7.80;;;6.70;;
1048;SDS011;513;51.444;7.196;2023-06-26T04:08:29;8.17;;;6.50;;
1048;SDS011;513;51.444;7.196;2023-06-26T04:10:56;8.80;;;6.80;;
1048;SDS011;513;51.444;7.196;2023-06-26T04:13:23;7.45;;;6.28;;
1048;SDS011;513;51.444;7.196;2023-06-26T04:15:50;7.47;;;6.60;;
1048;SDS011;513;51.444;7.196;2023-06-26T04:18:19;9.10;;;6.50;;
1048;SDS011;513;51.444;7.196;2023-06-26T04:23:28;8.20;;;6.22;;
1048;SDS011;513;51.444;7.196;2023-06-26T04:25:55;7.43;;;6.03;;
1048;SDS011;513;51.444;7.196;2023-06-26T04:28:23;8.20;;;5.95;;
1048;SDS011;513;51.444;7.196;2023-06-26T04:30:50;8.07;;;6.40;;
1048;SDS011;513;51.444;7.196;2023-06-26T04:33:20;8.18;;;6.32;;
1048;SDS011;513;51.444;7.196;2023-06-26T04:35:47;7.50;;;6.50;;
1048;SDS011;513;51.444;7.196;2023-06-26T04:38:14;8.93;;;6.57;;
1048;SDS011;513;51.444;7.196;2023-06-26T04:40:41;9.57;;;6.32;;
1048;SDS011;513;51.444;7.196;2023-06-26T04:43:08;9.13;;;6.55;;
1048;SDS011;513;51.444;7.196;2023-06-26T04:45:35;8.43;;;6.60;;
1048;SDS011;513;51.444;7.196;2023-06-26T04:48:02;8.80;;;6.03;;
1048;SDS011;513;51.444;7.196;2023-06-26T04:50:32;9.20;;;6.25;;
1048;SDS011;513;51.444;7.196;2023-06-26T04:53:00;8.07;;;6.60;;
1048;SDS011;513;51.444;7.196;2023-06-26T04:55:27;9.52;;;6.22;;
1048;SDS011;513;51.444;7.196;2023-06-26T04:57:55;7.63;;;6.40;;
1048;SDS011;513;51.444;7.196;2023-06-26T05:00:22;11.13;;;6.55;;
1048;SDS011;513;51.444;7.196;2023-06-26T05:02:49;10.27;;;6.93;;
1048;SDS011;513;51.444;7.196;2023-06-26T05:05:24;9.65;;;7.60;;
1048;SDS011;513;51.444;7.196;2023-06-26T05:07:53;11.02;;;7.70;;
1048;SDS011;513;51.444;7.196;2023-06-26T05:10:21;8.70;;;7.30;;
1048;SDS011;513;51.444;7.196;2023-06-26T05:12:48;9.33;;;7.20;;
1048;SDS011;513;51.444;7.196;2023-06-26T05:15:15;11.40;;;7.72;;
1048;SDS011;513;51.444;7.196;2023-06-26T05:17:42;8.73;;;7.47;;
1048;SDS011;513;51.444;7.196;2023-06-26T05:20:09;10.07;;;7.60;;
1048;SDS011;513;51.444;7.196;2023-06-26T05:22:37;11.38;;;7.90;;
1048;SDS011;513;51.444;7.196;2023-06-26T05:25:06;9.83;;;7.63;;
1048;SDS011;513;51.444;7.196;2023-06-26T05:27:34;10.73;;;8.15;;
1048;SDS011;513;51.444;7.196;2023-06-26T05:30:01;9.18;;;7.40;;
1048;SDS011;513;51.444;7.196;2023-06-26T05:32:28;8.85;;;7.20;;
1048;SDS011;513;51.444;7.196;2023-06-26T05:34:57;10.20;;;7.80;;
1048;SDS011;513;51.444;7.196;2023-06-26T05:37:25;11.05;;;7.93;;
1048;SDS011;513;51.444;7.196;2023-06-26T05:39:53;10.60;;;8.40;;
1048;SDS011;513;51.444;7.196;2023-06-26T05:42:22;13.48;;;8.48;;
1048;SDS011;513;51.444;7.196;2023-06-26T05:44:49;10.77;;;8.73;;
1048;SDS011;513;51.444;7.196;2023-06-26T05:47:16;10.73;;;8.13;;
1048;SDS011;513;51.444;7.196;2023-06-26T05:49:43;9.68;;;7.93;;
1048;SDS011;513;51.444;7.196;2023-06-26T05:52:11;10.27;;;7.97;;
1048;SDS011;513;51.444;7.196;2023-06-26T05:54:39;9.95;;;7.82;;
1048;SDS011;513;51.444;7.196;2023-06-26T05:57:06;10.52;;;7.05;;
1048;SDS011;513;51.444;7.196;2023-06-26T05:59:34;9.35;;;7.00;;
1048;SDS011;513;51.444;7.196;2023-06-26T06:02:03;11.55;;;6.88;;
1048;SDS011;513;51.444;7.196;2023-06-26T06:04:30;15.27;;;7.05;;
1048;SDS011;513;51.444;7.196;2023-06-26T06:06:57;10.43;;;7.10;;
1048;SDS011;513;51.444;7.196;2023-06-26T06:09:24;10.45;;;6.97;;
1048;SDS011;513;51.444;7.196;2023-06-26T06:11:51;10.50;;;7.15;;
1048;SDS011;513;51.444;7.196;2023-06-26T06:14:18;11.88;;;6.70;;
1048;SDS011;513;51.444;7.196;2023-06-26T06:16:47;11.38;;;6.47;;
1048;SDS011;513;51.444;7.196;2023-06-26T06:19:14;10.10;;;6.57;;
1048;SDS011;513;51.444;7.196;2023-06-26T06:21:41;13.05;;;6.60;;
1048;SDS011;513;51.444;7.196;2023-06-26T06:24:08;11.75;;;6.78;;
1048;SDS011;513;51.444;7.196;2023-06-26T06:26:35;9.55;;;6.03;;
1048;SDS011;513;51.444;7.196;2023-06-26T06:29:02;11.95;;;5.70;;
1048;SDS011;513;51.444;7.196;2023-06-26T06:31:29;16.10;;;6.15;;
1048;SDS011;513;51.444;7.196;2023-06-26T06:33:58;11.57;;;5.72;;
1048;SDS011;513;51.444;7.196;2023-06-26T06:36:25;11.73;;;6.35;;
1048;SDS011;513;51.444;7.196;2023-06-26T06:38:52;15.70;;;6.68;;
1048;SDS011;513;51.444;7.196;2023-06-26T06:41:19;10.35;;;5.85;;
1048;SDS011;513;51.444;7.196;2023-06-26T06:43:46;10.68;;;6.18;;
1048;SDS011;513;51.444;7.196;2023-06-26T06:46:13;8.63;;;6.10;;
1048;SDS011;513;51.444;7.196;2023-06-26T06:48:40;9.23;;;5.85;;
1048;SDS011;513;51.444;7.196;2023-06-26T06:51:08;11.38;;;6.07;;
1048;SDS011;513;51.444;7.196;2023-06-26T06:53:35;15.27;;;6.50;;
1048;SDS011;513;51.444;7.196;2023-06-26T06:56:02;11.57;;;5.95;;
1048;SDS011;513;51.444;7.196;2023-06-26T06:58:29;11.57;;;6.07;;
1048;SDS011;513;51.444;7.196;2023-06-26T07:00:58;10.82;;;6.53;;
1048;SDS011;513;51.444;7.196;2023-06-26T07:03:29;13.25;;;6.35;;
1048;SDS011;513;51.444;7.196;2023-06-26T07:05:56;13.82;;;6.55;;
1048;SDS011;513;51.444;7.196;2023-06-26T07:08:24;9.95;;;6.68;;
1048;SDS011;513;51.444;7.196;2023-06-26T07:10:51;10.70;;;6.13;;
1048;SDS011;513;51.444;7.196;2023-06-26T07:13:18;12.15;;;6.68;;
1048;SDS011;513;51.444;7.196;2023-06-26T07:15:45;12.43;;;6.93;;
1048;SDS011;513;51.444;7.196;2023-06-26T07:18:13;11.77;;;6.27;;
1048;SDS011;513;51.444;7.196;2023-06-26T07:20:40;12.20;;;6.13;;
1048;SDS011;513;51.444;7.196;2023-06-26T07:23:07;10.77;;;6.55;;
1048;SDS011;513;51.444;7.196;2023-06-26T07:25:35;12.50;;;6.30;;
1048;SDS011;513;51.444;7.196;2023-06-26T07:28:02;11.98;;;6.35;;
1048;SDS011;513;51.444;7.196;2023-06-26T07:30:29;14.45;;;6.93;;
1048;SDS011;513;51.444;7.196;2023-06-26T07:32:56;9.95;;;6.40;;
1048;SDS011;513;51.444;7.196;2023-06-26T07:35:23;11.85;;;6.10;;
1048;SDS011;513;51.444;7.196;2023-06-26T07:37:52;10.30;;;6.00;;
1048;SDS011;513;51.444;7.196;2023-06-26T07:40:19;10.88;;;6.30;;
1048;SDS011;513;51.444;7.196;2023-06-26T07:42:47;9.75;;;6.03;;
1048;SDS011;513;51.444;7.196;2023-06-26T07:45:15;10.82;;;6.20;;
1048;SDS011;513;51.444;7.196;2023-06-26T07:47:42;9.85;;;6.55;;
1048;SDS011;513;51.444;7.196;2023-06-26T07:50:09;13.65;;;6.72;;
1048;SDS011;513;51.444;7.196;2023-06-26T07:52:36;12.18;;;6.72;;
1048;SDS011;513;51.444;7.196;2023-06-26T07:55:04;11.83;;;7.00;;
1048;SDS011;513;51.444;7.196;2023-06-26T07:57:31;11.68;;;6.47;;
1048;SDS011;513;51.444;7.196;2023-06-26T07:59:59;12.35;;;7.18;;
1048;SDS011;513;51.444;7.196;2023-06-26T08:02:26;10.60;;;6.80;;
1048;SDS011;513;51.444;7.196;2023-06-26T08:04:54;11.67;;;6.90;;
1048;SDS011;513;51.444;7.196;2023-06-26T08:07:20;14.05;;;6.68;;
1048;SDS011;513;51.444;7.196;2023-06-26T08:09:47;11.30;;;6.88;;
1048;SDS011;513;51.444;7.196;2023-06-26T08:12:14;10.57;;;6.90;;
1048;SDS011;513;51.444;7.196;2023-06-26T08:14:41;15.65;;;6.53;;
1048;SDS011;513;51.444;7.196;2023-06-26T08:17:10;12.50;;;6.88;;
1048;SDS011;513;51.444;7.196;2023-06-26T08:19:37;12.35;;;7.10;;
1048;SDS011;513;51.444;7.196;2023-06-26T08:22:04;15.00;;;7.43;;
1048;SDS011;513;51.444;7.196;2023-06-26T08:24:31;14.27;;;7.80;;
1048;SDS011;513;51.444;7.196;2023-06-26T08:26:58;15.57;;;7.20;;
1048;SDS011;513;51.444;7.196;2023-06-26T08:29:25;13.95;;;7.07;;
1048;SDS011;513;51.444;7.196;2023-06-26T08:31:52;13.83;;;6.90;;
1048;SDS011;513;51.444;7.196;2023-06-26T08:34:20;12.85;;;6.60;;
1048;SDS011;513;51.444;7.196;2023-06-26T08:36:47;12.95;;;7.47;;
1048;SDS011;513;51.444;7.196;2023-06-26T08:39:14;13.52;;;6.85;;
1048;SDS011;513;51.444;7.196;2023-06-26T08:41:41;12.00;;;6.70;;
1048;SDS011;513;51.444;7.196;2023-06-26T08:44:08;12.18;;;7.97;;
1048;SDS011;513;51.444;7.196;2023-06-26T08:46:35;14.77;;;7.65;;
1048;SDS011;513;51.444;7.196;2023-06-26T08:49:04;14.82;;;8.25;;
1048;SDS011;513;51.444;7.196;2023-06-26T08:51:36;16.25;;;7.65;;
1048;SDS011;513;51.444;7.196;2023-06-26T08:54:05;12.13;;;7.47;;
1048;SDS011;513;51.444;7.196;2023-06-26T08:56:35;13.73;;;8.03;;
1048;SDS011;513;51.444;7.196;2023-06-26T08:59:02;13.30;;;7.53;;
1048;SDS011;513;51.444;7.196;2023-06-26T09:01:31;12.07;;;7.65;;
1048;SDS011;513;51.444;7.196;2023-06-26T09:03:58;12.63;;;7.35;;
1048;SDS011;513;51.444;7.196;2023-06-26T09:06:25;13.25;;;7.60;;
1048;SDS011;513;51.444;7.196;2023-06-26T09:08:53;12.30;;;7.18;;
1048;SDS011;513;51.444;7.196;2023-06-26T09:11:20;13.02;;;7.13;;
1048;SDS011;513;51.444;7.196;2023-06-26T09:13:47;15.60;;;7.72;;
1048;SDS011;513;51.444;7.196;2023-06-26T09:16:14;12.02;;;6.95;;
1048;SDS011;513;51.444;7.196;2023-06-26T09:18:41;13.95;;;6.32;;
1048;SDS011;513;51.444;7.196;2023-06-26T09:21:09;12.88;;;6.35;;
1048;SDS011;513;51.444;7.196;2023-06-26T09:23:36;15.75;;;6.95;;
1048;SDS011;513;51.444;7.196;2023-06-26T09:26:05;12.00;;;6.27;;
1048;SDS011;513;51.444;7.196;2023-06-26T09:28:32;13.43;;;6.13;;
1048;SDS011;513;51.444;7.196;2023-06-26T09:31:02;13.10;;;5.68;;
1048;SDS011;513;51.444;7.196;2023-06-26T09:33:32;12.50;;;5.32;;
1048;SDS011;513;51.444;7.196;2023-06-26T09:36:02;12.60;;;5.20;;
1048;SDS011;513;51.444;7.196;2023-06-26T09:38:31;10.73;;;5.40;;
1048;SDS011;513;51.444;7.196;2023-06-26T09:40:58;12.27;;;5.30;;
1048;SDS011;513;51.444;7.196;2023-06-26T09:43:26;10.75;;;5.10;;
1048;SDS011;513;51.444;7.196;2023-06-26T09:45:53;14.23;;;5.53;;
1048;SDS011;513;51.444;7.196;2023-06-26T09:48:20;12.75;;;5.57;;
1048;SDS011;513;51.444;7.196;2023-06-26T09:50:48;10.90;;;5.25;;
1048;SDS011;513;51.444;7.196;2023-06-26T09:53:15;12.98;;;5.20;;
1048;SDS011;513;51.444;7.196;2023-06-26T09:55:43;10.18;;;4.80;;
1048;SDS011;513;51.444;7.196;2023-06-26T09:58:12;9.15;;;5.03;;
1048;SDS011;513;51.444;7.196;2023-06-26T10:00:41;10.80;;;4.80;;
1048;SDS011;513;51.444;7.196;2023-06-26T10:03:08;10.82;;;5.15;;
1048;SDS011;513;51.444;7.196;2023-06-26T10:05:35;11.60;;;5.00;;
1048;SDS011;513;51.444;7.196;2023-06-26T10:08:03;10.73;;;4.53;;
1048;SDS011;513;51.444;7.196;2023-06-26T10:10:31;8.95;;;4.50;;
1048;SDS011;513;51.444;7.196;2023-06-26T10:12:59;10.35;;;4.70;;
1048;SDS011;513;51.444;7.196;2023-06-26T10:15:27;9.85;;;4.30;;
1048;SDS011;513;51.444;7.196;2023-06-26T10:17:57;9.38;;;4.35;;
1048;SDS011;513;51.444;7.196;2023-06-26T10:20:24;7.90;;;4.35;;
1048;SDS011;513;51.444;7.196;2023-06-26T10:22:52;8.80;;;3.95;;
1048;SDS011;513;51.444;7.196;2023-06-26T10:25:20;12.03;;;4.60;;
1048;SDS011;513;51.444;7.196;2023-06-26T10:27:49;8.63;;;4.43;;
1048;SDS011;513;51.444;7.196;2023-06-26T10:30:17;8.95;;;3.90;;
1048;SDS011;513;51.444;7.196;2023-06-26T10:32:46;7.53;;;4.10;;
1048;SDS011;513;51.444;7.196;2023-06-26T10:35:14;7.47;;;3.20;;
1048;SDS011;513;51.444;7.196;2023-06-26T10:37:42;8.23;;;3.40;;
1048;SDS011;513;51.444;7.196;2023-06-26T10:40:10;9.80;;;4.10;;
1048;SDS011;513;51.444;7.196;2023-06-26T10:42:37;9.02;;;4.38;;
1048;SDS011;513;51.444;7.196;2023-06-26T10:45:10;8.63;;;4.40;;
1048;SDS011;513;51.444;7.196;2023-06-26T10:47:38;9.73;;;3.97;;
1048;SDS011;513;51.444;7.196;2023-06-26T10:50:17;9.38;;;3.83;;
1048;SDS011;513;51.444;7.196;2023-06-26T10:52:44;8.85;;;3.83;;
1048;SDS011;513;51.444;7.196;2023-06-26T10:55:13;11.30;;;4.50;;
1048;SDS011;513;51.444;7.196;2023-06-26T10:57:44;11.32;;;4.25;;
1048;SDS011;513;51.444;7.196;2023-06-26T11:00:11;7.63;;;3.63;;
1048;SDS011;513;51.444;7.196;2023-06-26T11:05:27;9.80;;;3.90;;
1048;SDS011;513;51.444;7.196;2023-06-26T11:08:04;9.30;;;3.97;;
1048;SDS011;513;51.444;7.196;2023-06-26T11:13:13;9.50;;;3.63;;
1048;SDS011;513;51.444;7.196;2023-06-26T11:15:42;6.32;;;3.22;;
1048;SDS011;513;51.444;7.196;2023-06-26T11:18:09;7.43;;;3.42;;
1048;SDS011;513;51.444;7.196;2023-06-26T11:20:38;8.40;;;3.58;;
1048;SDS011;513;51.444;7.196;2023-06-26T11:23:05;6.85;;;3.60;;
1048;SDS011;513;51.444;7.196;2023-06-26T11:25:33;7.55;;;3.70;;
1048;SDS011;513;51.444;7.196;2023-06-26T11:28:02;7.35;;;3.47;;
1048;SDS011;513;51.444;7.196;2023-06-26T11:30:29;7.53;;;3.97;;
1048;SDS011;513;51.444;7.196;2023-06-26T11:33:03;8.10;;;3.60;;
1048;SDS011;513;51.444;7.196;2023-06-26T11:35:30;7.63;;;3.73;;
1048;SDS011;513;51.444;7.196;2023-06-26T11:37:59;7.20;;;3.58;;
1048;SDS011;513;51.444;7.196;2023-06-26T11:40:29;6.78;;;3.40;;
1048;SDS011;513;51.444;7.196;2023-06-26T11:42:57;8.27;;;3.50;;
1048;SDS011;513;51.444;7.196;2023-06-26T11:45:24;7.43;;;3.30;;
1048;SDS011;513;51.444;7.196;2023-06-26T11:47:51;4.95;;;3.00;;
1048;SDS011;513;51.444;7.196;2023-06-26T11:50:18;6.55;;;2.40;;
1048;SDS011;513;51.444;7.196;2023-06-26T11:52:45;5.47;;;2.20;;
1048;SDS011;513;51.444;7.196;2023-06-26T11:55:20;4.97;;;2.08;;
1048;SDS011;513;51.444;7.196;2023-06-26T11:57:48;5.28;;;1.90;;
1048;SDS011;513;51.444;7.196;2023-06-26T12:00:15;5.67;;;2.13;;
1048;SDS011;513;51.444;7.196;2023-06-26T12:02:43;4.22;;;1.90;;
1048;SDS011;513;51.444;7.196;2023-06-26T12:05:11;6.43;;;2.00;;
1048;SDS011;513;51.444;7.196;2023-06-26T12:07:38;6.53;;;1.85;;
1048;SDS011;513;51.444;7.196;2023-06-26T12:10:06;4.50;;;2.10;;
1048;SDS011;513;51.444;7.196;2023-06-26T12:12:34;6.80;;;2.30;;
1048;SDS011;513;51.444;7.196;2023-06-26T12:15:01;5.20;;;1.80;;
1048;SDS011;513;51.444;7.196;2023-06-26T12:17:28;5.80;;;2.03;;
1048;SDS011;513;51.444;7.196;2023-06-26T12:19:56;6.00;;;2.67;;
1048;SDS011;513;51.444;7.196;2023-06-26T12:22:23;4.97;;;1.85;;
1048;SDS011;513;51.444;7.196;2023-06-26T12:24:50;5.00;;;1.90;;
1048;SDS011;513;51.444;7.196;2023-06-26T12:27:18;6.63;;;1.90;;
1048;SDS011;513;51.444;7.196;2023-06-26T12:29:49;5.30;;;1.80;;
1048;SDS011;513;51.444;7.196;2023-06-26T12:32:17;3.22;;;1.77;;
1048;SDS011;513;51.444;7.196;2023-06-26T12:34:46;3.78;;;1.52;;
1048;SDS011;513;51.444;7.196;2023-06-26T12:37:14;4.03;;;1.50;;
1048;SDS011;513;51.444;7.196;2023-06-26T12:39:47;4.57;;;1.65;;
1048;SDS011;513;51.444;7.196;2023-06-26T12:42:15;5.93;;;1.80;;
1048;SDS011;513;51.444;7.196;2023-06-26T12:44:42;3.60;;;1.60;;
1048;SDS011;513;51.444;7.196;2023-06-26T12:47:10;4.93;;;1.70;;
1048;SDS011;513;51.444;7.196;2023-06-26T12:49:39;7.75;;;1.73;;
1048;SDS011;513;51.444;7.196;2023-06-26T12:52:06;4.25;;;1.48;;
1048;SDS011;513;51.444;7.196;2023-06-26T12:54:34;6.03;;;1.30;;
1048;SDS011;513;51.444;7.196;2023-06-26T12:57:01;2.63;;;1.42;;
1048;SDS011;513;51.444;7.196;2023-06-26T12:59:29;6.20;;;1.45;;
1048;SDS011;513;51.444;7.196;2023-06-26T13:01:56;3.67;;;1.30;;
1048;SDS011;513;51.444;7.196;2023-06-26T13:04:24;3.97;;;1.40;;
1048;SDS011;513;51.444;7.196;2023-06-26T13:06:51;3.53;;;1.30;;
1048;SDS011;513;51.444;7.196;2023-06-26T13:09:19;4.00;;;1.40;;
1048;SDS011;513;51.444;7.196;2023-06-26T13:11:46;3.08;;;1.23;;
1048;SDS011;513;51.444;7.196;2023-06-26T13:14:13;7.38;;;1.60;;
1048;SDS011;513;51.444;7.196;2023-06-26T13:16:41;4.38;;;1.33;;
1048;SDS011;513;51.444;7.196;2023-06-26T13:19:08;5.45;;;1.55;;
1048;SDS011;513;51.444;7.196;2023-06-26T13:21:36;4.28;;;1.33;;
1048;SDS011;513;51.444;7.196;2023-06-26T13:24:03;5.63;;;1.48;;
1048;SDS011;513;51.444;7.196;2023-06-26T13:26:31;3.20;;;1.20;;
1048;SDS011;513;51.444;7.196;2023-06-26T13:28:58;4.32;;;1.27;;
1048;SDS011;513;51.444;7.196;2023-06-26T13:31:25;4.32;;;1.17;;
1048;SDS011;513;51.444;7.196;2023-06-26T13:33:52;6.27;;;1.40;;
1048;SDS011;513;51.444;7.196;2023-06-26T13:36:20;3.22;;;1.40;;
1048;SDS011;513;51.444;7.196;2023-06-26T13:38:48;4.15;;;1.20;;
1048;SDS011;513;51.444;7.196;2023-06-26T13:41:20;3.47;;;1.30;;
1048;SDS011;513;51.444;7.196;2023-06-26T13:43:47;4.10;;;1.30;;
1048;SDS011;513;51.444;7.196;2023-06-26T13:46:14;5.00;;;1.40;;
1048;SDS011;513;51.444;7.196;2023-06-26T13:48:42;5.40;;;2.53;;
1048;SDS011;513;51.444;7.196;2023-06-26T13:51:08;5.32;;;1.30;;
1048;SDS011;513;51.444;7.196;2023-06-26T13:53:36;4.43;;;1.20;;
1048;SDS011;513;51.444;7.196;2023-06-26T13:56:04;4.20;;;1.23;;
1048;SDS011;513;51.444;7.196;2023-06-26T13:58:31;8.35;;;1.42;;
1048;SDS011;513;51.444;7.196;2023-06-26T14:00:58;4.93;;;1.23;;
1048;SDS011;513;51.444;7.196;2023-06-26T14:03:25;29.20;;;2.53;;
1048;SDS011;513;51.444;7.196;2023-06-26T14:05:53;2.50;;;1.13;;
1048;SDS011;513;51.444;7.196;2023-06-26T14:08:20;5.63;;;1.30;;
1048;SDS011;513;51.444;7.196;2023-06-26T14:10:47;5.47;;;1.23;;
1048;SDS011;513;51.444;7.196;2023-06-26T14:13:16;3.38;;;1.30;;
1048;SDS011;513;51.444;7.196;2023-06-26T14:15:43;4.32;;;1.13;;
1048;SDS011;513;51.444;7.196;2023-06-26T14:18:10;3.88;;;1.17;;
1048;SDS011;513;51.444;7.196;2023-06-26T14:20:37;2.50;;;1.30;;
1048;SDS011;513;51.444;7.196;2023-06-26T14:23:04;3.25;;;1.17;;
1048;SDS011;513;51.444;7.196;2023-06-26T14:25:31;2.17;;;1.10;;
1048;SDS011;513;51.444;7.196;2023-06-26T14:27:58;6.72;;;1.25;;
1048;SDS011;513;51.444;7.196;2023-06-26T14:30:27;3.97;;;1.20;;
1048;SDS011;513;51.444;7.196;2023-06-26T14:32:54;5.07;;;1.30;;
1048;SDS011;513;51.444;7.196;2023-06-26T14:35:21;3.17;;;1.35;;
1048;SDS011;513;51.444;7.196;2023-06-26T14:37:48;2.35;;;1.13;;
1048;SDS011;513;51.444;7.196;2023-06-26T14:40:15;3.05;;;1.20;;
1048;SDS011;513;51.444;7.196;2023-06-26T14:42:42;6.43;;;1.23;;
1048;SDS011;513;51.444;7.196;2023-06-26T14:45:10;3.57;;;1.20;;
1048;SDS011;513;51.444;7.196;2023-06-26T14:47:38;3.97;;;1.38;;
1048;SDS011;513;51.444;7.196;2023-06-26T14:50:06;3.60;;;1.20;;
1048;SDS011;513;51.444;7.196;2023-06-26T14:52:33;4.43;;;1.50;;
1048;SDS011;513;51.444;7.196;2023-06-26T14:55:00;3.60;;;1.20;;
1048;SDS011;513;51.444;7.196;2023-06-26T14:57:27;2.33;;;1.20;;
1048;SDS011;513;51.444;7.196;2023-06-26T14:59:54;4.20;;;1.20;;
1048;SDS011;513;51.444;7.196;2023-06-26T15:02:21;2.97;;;1.30;;
1048;SDS011;513;51.444;7.196;2023-06-26T15:04:49;2.47;;;1.00;;
1048;SDS011;513;51.444;7.196;2023-06-26T15:07:16;2.13;;;1.08;;
1048;SDS011;513;51.444;7.196;2023-06-26T15:09:43;2.42;;;1.10;;
1048;SDS011;513;51.444;7.196;2023-06-26T15:12:11;4.32;;;1.13;;
1048;SDS011;513;51.444;7.196;2023-06-26T15:14:38;3.88;;;1.40;;
1048;SDS011;513;51.444;7.196;2023-06-26T15:17:05;3.35;;;1.13;;
1048;SDS011;513;51.444;7.196;2023-06-26T15:19:33;3.33;;;0.95;;
1048;SDS011;513;51.444;7.196;2023-06-26T15:22:01;4.97;;;1.13;;
1048;SDS011;513;51.444;7.196;2023-06-26T15:24:28;3.60;;;1.15;;
1048;SDS011;513;51.444;7.196;2023-06-26T15:26:55;5.63;;;1.10;;
1048;SDS011;513;51.444;7.196;2023-06-26T15:29:22;5.20;;;1.27;;
1048;SDS011;513;51.444;7.196;2023-06-26T15:31:49;2.47;;;1.00;;
1048;SDS011;513;51.444;7.196;2023-06-26T15:34:16;2.35;;;1.02;;
1048;SDS011;513;51.444;7.196;2023-06-26T15:36:43;5.20;;;1.10;;